sensor_id;sensor_type;location;lat;lon;timestamp;P1;durP1;ratioP1;P2;durP2;ratioP2
47599;SDS011;33323;52.124;6.018;2023-03-25T00:00:36;5.18;;;1.98;;
47599;SDS011;33323;52.124;6.018;2023-03-25T00:03:04;6.35;;;1.33;;
47599;SDS011;33323;52.124;6.018;2023-03-25T00:05:32;3.28;;;1.50;;
47599;SDS011;33323;52.124;6.018;2023-03-25T00:07:59;2.47;;;1.10;;
47599;SDS011;33323;52.124;6.018;2023-03-25T00:10:27;4.70;;;1.77;;
47599;SDS011;33323;52.124;6.018;2023-03-25T00:12:54;9.25;;;1.40;;
47599;SDS011;33323;52.124;6.018;2023-03-25T00:15:21;7.25;;;1.08;;
47599;SDS011;33323;52.124;6.018;2023-03-25T00:17:49;5.10;;;1.45;;
47599;SDS011;33323;52.124;6.018;2023-03-25T00:20:16;3.70;;;1.70;;
47599;SDS011;33323;52.124;6.018;2023-03-25T00:22:43;6.28;;;1.52;;
47599;SDS011;33323;52.124;6.018;2023-03-25T00:25:12;5.80;;;1.75;;
47599;SDS011;33323;52.124;6.018;2023-03-25T00:27:43;6.45;;;1.42;;
47599;SDS011;33323;52.124;6.018;2023-03-25T00:30:13;5.47;;;1.17;;
47599;SDS011;33323;52.124;6.018;2023-03-25T00:32:41;3.88;;;0.98;;
47599;SDS011;33323;52.124;6.018;2023-03-25T00:35:11;4.35;;;1.67;;
47599;SDS011;33323;52.124;6.018;2023-03-25T00:37:39;8.00;;;1.35;;
47599;SDS011;33323;52.124;6.018;2023-03-25T00:40:06;3.50;;;1.30;;
47599;SDS011;33323;52.124;6.018;2023-03-25T00:42:34;8.50;;;2.00;;
47599;SDS011;33323;52.124;6.018;2023-03-25T00:45:02;3.67;;;1.25;;
47599;SDS011;33323;52.124;6.018;2023-03-25T00:47:29;5.80;;;1.48;;
47599;SDS011;33323;52.124;6.018;2023-03-25T00:49:56;9.23;;;2.10;;
47599;SDS011;33323;52.124;6.018;2023-03-25T00:52:23;8.43;;;1.20;;
47599;SDS011;33323;52.124;6.018;2023-03-25T00:54:51;5.82;;;1.75;;
47599;SDS011;33323;52.124;6.018;2023-03-25T00:57:19;5.97;;;1.30;;
47599;SDS011;33323;52.124;6.018;2023-03-25T00:59:47;3.70;;;1.38;;
47599;SDS011;33323;52.124;6.018;2023-03-25T01:02:16;13.25;;;1.48;;
47599;SDS011;33323;52.124;6.018;2023-03-25T01:04:44;7.10;;;1.50;;
47599;SDS011;33323;52.124;6.018;2023-03-25T01:07:12;7.10;;;1.20;;
47599;SDS011;33323;52.124;6.018;2023-03-25T01:09:41;5.25;;;1.52;;
47599;SDS011;33323;52.124;6.018;2023-03-25T01:12:13;7.97;;;1.10;;
47599;SDS011;33323;52.124;6.018;2023-03-25T01:14:42;10.57;;;2.78;;
47599;SDS011;33323;52.124;6.018;2023-03-25T01:17:09;12.70;;;1.67;;
47599;SDS011;33323;52.124;6.018;2023-03-25T01:19:36;10.27;;;1.65;;
47599;SDS011;33323;52.124;6.018;2023-03-25T01:22:03;6.68;;;1.42;;
47599;SDS011;33323;52.124;6.018;2023-03-25T01:24:32;6.82;;;1.40;;
47599;SDS011;33323;52.124;6.018;2023-03-25T01:26:59;4.78;;;1.48;;
47599;SDS011;33323;52.124;6.018;2023-03-25T01:29:27;7.47;;;1.60;;
47599;SDS011;33323;52.124;6.018;2023-03-25T01:31:55;4.25;;;1.20;;
47599;SDS011;33323;52.124;6.018;2023-03-25T01:34:23;11.85;;;1.58;;
47599;SDS011;33323;52.124;6.018;2023-03-25T01:36:51;6.03;;;1.58;;
47599;SDS011;33323;52.124;6.018;2023-03-25T01:39:20;5.95;;;1.80;;
47599;SDS011;33323;52.124;6.018;2023-03-25T01:41:48;8.40;;;1.63;;
47599;SDS011;33323;52.124;6.018;2023-03-25T01:46:50;8.00;;;2.17;;
47599;SDS011;33323;52.124;6.018;2023-03-25T01:49:22;6.80;;;1.33;;
47599;SDS011;33323;52.124;6.018;2023-03-25T01:51:57;5.07;;;2.15;;
47599;SDS011;33323;52.124;6.018;2023-03-25T01:54:29;8.98;;;1.45;;
47599;SDS011;33323;52.124;6.018;2023-03-25T01:56:56;8.15;;;1.25;;
47599;SDS011;33323;52.124;6.018;2023-03-25T01:59:25;13.07;;;3.15;;
47599;SDS011;33323;52.124;6.018;2023-03-25T02:01:54;9.10;;;1.80;;
47599;SDS011;33323;52.124;6.018;2023-03-25T02:04:26;7.32;;;2.40;;
47599;SDS011;33323;52.124;6.018;2023-03-25T02:07:28;9.52;;;1.90;;
47599;SDS011;33323;52.124;6.018;2023-03-25T02:09:59;13.90;;;2.00;;
47599;SDS011;33323;52.124;6.018;2023-03-25T02:12:31;8.88;;;1.77;;
47599;SDS011;33323;52.124;6.018;2023-03-25T02:14:58;12.43;;;1.70;;
47599;SDS011;33323;52.124;6.018;2023-03-25T02:27:01;6.45;;;1.70;;
47599;SDS011;33323;52.124;6.018;2023-03-25T02:32:33;7.65;;;1.52;;
47599;SDS011;33323;52.124;6.018;2023-03-25T02:41:21;3.60;;;1.52;;
47599;SDS011;33323;52.124;6.018;2023-03-25T02:44:24;6.50;;;1.33;;
47599;SDS011;33323;52.124;6.018;2023-03-25T02:47:09;15.20;;;1.85;;
47599;SDS011;33323;52.124;6.018;2023-03-25T02:49:43;6.38;;;2.08;;
47599;SDS011;33323;52.124;6.018;2023-03-25T02:52:16;8.38;;;1.58;;
47599;SDS011;33323;52.124;6.018;2023-03-25T02:54:50;9.48;;;1.50;;
47599;SDS011;33323;52.124;6.018;2023-03-25T02:57:24;10.82;;;2.03;;
47599;SDS011;33323;52.124;6.018;2023-03-25T02:59:55;11.18;;;1.95;;
47599;SDS011;33323;52.124;6.018;2023-03-25T03:02:24;16.98;;;1.85;;
47599;SDS011;33323;52.124;6.018;2023-03-25T03:04:55;10.98;;;2.10;;
47599;SDS011;33323;52.124;6.018;2023-03-25T03:07:29;7.03;;;1.70;;
47599;SDS011;33323;52.124;6.018;2023-03-25T03:15:43;8.73;;;3.15;;
47599;SDS011;33323;52.124;6.018;2023-03-25T03:21:18;9.98;;;2.80;;
47599;SDS011;33323;52.124;6.018;2023-03-25T03:24:00;14.07;;;5.15;;
47599;SDS011;33323;52.124;6.018;2023-03-25T03:26:47;6.65;;;3.22;;
47599;SDS011;33323;52.124;6.018;2023-03-25T03:34:41;12.88;;;2.60;;
47599;SDS011;33323;52.124;6.018;2023-03-25T03:37:21;5.80;;;2.63;;
47599;SDS011;33323;52.124;6.018;2023-03-25T03:39:59;7.40;;;3.60;;
47599;SDS011;33323;52.124;6.018;2023-03-25T03:42:36;11.35;;;3.38;;
47599;SDS011;33323;52.124;6.018;2023-03-25T03:45:09;7.57;;;3.38;;
47599;SDS011;33323;52.124;6.018;2023-03-25T03:47:47;6.25;;;3.13;;
47599;SDS011;33323;52.124;6.018;2023-03-25T03:50:19;8.27;;;3.65;;
47599;SDS011;33323;52.124;6.018;2023-03-25T03:55:36;8.23;;;3.70;;
47599;SDS011;33323;52.124;6.018;2023-03-25T03:58:36;8.27;;;3.55;;
47599;SDS011;33323;52.124;6.018;2023-03-25T04:04:14;12.55;;;3.42;;
47599;SDS011;33323;52.124;6.018;2023-03-25T04:06:56;6.57;;;3.90;;
47599;SDS011;33323;52.124;6.018;2023-03-25T04:10:08;8.70;;;4.03;;
47599;SDS011;33323;52.124;6.018;2023-03-25T04:13:18;11.13;;;4.63;;
47599;SDS011;33323;52.124;6.018;2023-03-25T04:15:47;11.95;;;3.80;;
47599;SDS011;33323;52.124;6.018;2023-03-25T04:18:16;9.13;;;3.70;;
47599;SDS011;33323;52.124;6.018;2023-03-25T04:20:43;9.85;;;3.70;;
47599;SDS011;33323;52.124;6.018;2023-03-25T04:23:15;9.93;;;4.22;;
47599;SDS011;33323;52.124;6.018;2023-03-25T04:25:43;11.18;;;4.90;;
47599;SDS011;33323;52.124;6.018;2023-03-25T04:28:13;9.35;;;3.58;;
47599;SDS011;33323;52.124;6.018;2023-03-25T04:30:43;7.80;;;3.03;;
47599;SDS011;33323;52.124;6.018;2023-03-25T04:33:11;12.50;;;5.03;;
47599;SDS011;33323;52.124;6.018;2023-03-25T04:35:39;6.68;;;2.88;;
47599;SDS011;33323;52.124;6.018;2023-03-25T04:38:07;5.13;;;3.53;;
47599;SDS011;33323;52.124;6.018;2023-03-25T04:40:34;11.35;;;3.05;;
47599;SDS011;33323;52.124;6.018;2023-03-25T04:43:01;10.43;;;4.65;;
47599;SDS011;33323;52.124;6.018;2023-03-25T04:45:29;14.77;;;3.83;;
47599;SDS011;33323;52.124;6.018;2023-03-25T04:48:02;11.73;;;3.88;;
47599;SDS011;33323;52.124;6.018;2023-03-25T04:50:31;16.08;;;3.63;;
47599;SDS011;33323;52.124;6.018;2023-03-25T04:52:59;10.05;;;2.85;;
47599;SDS011;33323;52.124;6.018;2023-03-25T04:55:27;14.23;;;4.32;;
47599;SDS011;33323;52.124;6.018;2023-03-25T04:57:55;9.93;;;3.45;;
47599;SDS011;33323;52.124;6.018;2023-03-25T05:00:23;13.02;;;3.22;;
47599;SDS011;33323;52.124;6.018;2023-03-25T05:02:52;14.13;;;4.80;;
47599;SDS011;33323;52.124;6.018;2023-03-25T05:05:22;16.45;;;4.57;;
47599;SDS011;33323;52.124;6.018;2023-03-25T05:07:52;10.68;;;3.88;;
47599;SDS011;33323;52.124;6.018;2023-03-25T05:10:24;9.90;;;3.70;;
47599;SDS011;33323;52.124;6.018;2023-03-25T05:13:02;11.68;;;5.30;;
47599;SDS011;33323;52.124;6.018;2023-03-25T05:15:32;9.65;;;3.80;;
47599;SDS011;33323;52.124;6.018;2023-03-25T05:18:08;18.73;;;3.58;;
47599;SDS011;33323;52.124;6.018;2023-03-25T05:20:40;11.00;;;3.10;;
47599;SDS011;33323;52.124;6.018;2023-03-25T05:23:11;6.53;;;2.85;;
47599;SDS011;33323;52.124;6.018;2023-03-25T05:25:47;13.40;;;2.75;;
47599;SDS011;33323;52.124;6.018;2023-03-25T05:28:17;13.10;;;3.13;;
47599;SDS011;33323;52.124;6.018;2023-03-25T05:30:45;14.98;;;3.72;;
47599;SDS011;33323;52.124;6.018;2023-03-25T05:33:14;12.27;;;3.00;;
47599;SDS011;33323;52.124;6.018;2023-03-25T05:35:43;14.73;;;4.78;;
47599;SDS011;33323;52.124;6.018;2023-03-25T05:38:11;7.88;;;3.22;;
47599;SDS011;33323;52.124;6.018;2023-03-25T05:40:45;11.95;;;4.32;;
47599;SDS011;33323;52.124;6.018;2023-03-25T05:43:13;8.82;;;2.60;;
47599;SDS011;33323;52.124;6.018;2023-03-25T05:45:42;4.97;;;1.98;;
47599;SDS011;33323;52.124;6.018;2023-03-25T05:48:11;14.10;;;3.50;;
47599;SDS011;33323;52.124;6.018;2023-03-25T05:50:38;6.90;;;2.22;;
47599;SDS011;33323;52.124;6.018;2023-03-25T05:53:11;8.07;;;1.38;;
47599;SDS011;33323;52.124;6.018;2023-03-25T05:55:43;5.88;;;2.20;;
47599;SDS011;33323;52.124;6.018;2023-03-25T05:58:13;7.03;;;1.60;;
47599;SDS011;33323;52.124;6.018;2023-03-25T06:00:40;4.55;;;1.95;;
47599;SDS011;33323;52.124;6.018;2023-03-25T06:03:07;7.95;;;1.90;;
47599;SDS011;33323;52.124;6.018;2023-03-25T06:05:39;5.03;;;1.65;;
47599;SDS011;33323;52.124;6.018;2023-03-25T06:08:06;4.25;;;1.50;;
47599;SDS011;33323;52.124;6.018;2023-03-25T06:10:34;10.18;;;3.35;;
47599;SDS011;33323;52.124;6.018;2023-03-25T06:13:02;9.55;;;3.28;;
47599;SDS011;33323;52.124;6.018;2023-03-25T06:15:29;15.32;;;2.78;;
47599;SDS011;33323;52.124;6.018;2023-03-25T06:17:59;10.50;;;2.67;;
47599;SDS011;33323;52.124;6.018;2023-03-25T06:20:26;6.53;;;2.78;;
47599;SDS011;33323;52.124;6.018;2023-03-25T06:22:54;9.68;;;3.70;;
47599;SDS011;33323;52.124;6.018;2023-03-25T06:25:21;12.25;;;2.40;;
47599;SDS011;33323;52.124;6.018;2023-03-25T06:27:49;15.30;;;2.53;;
47599;SDS011;33323;52.124;6.018;2023-03-25T06:30:20;13.52;;;3.58;;
47599;SDS011;33323;52.124;6.018;2023-03-25T06:32:47;8.63;;;3.40;;
47599;SDS011;33323;52.124;6.018;2023-03-25T06:35:21;9.60;;;3.58;;
47599;SDS011;33323;52.124;6.018;2023-03-25T06:37:48;9.75;;;3.40;;
47599;SDS011;33323;52.124;6.018;2023-03-25T06:40:26;11.70;;;3.40;;
47599;SDS011;33323;52.124;6.018;2023-03-25T06:42:54;13.68;;;4.82;;
47599;SDS011;33323;52.124;6.018;2023-03-25T06:45:50;14.73;;;4.03;;
47599;SDS011;33323;52.124;6.018;2023-03-25T06:48:30;17.08;;;5.18;;
47599;SDS011;33323;52.124;6.018;2023-03-25T06:50:58;11.80;;;4.97;;
47599;SDS011;33323;52.124;6.018;2023-03-25T06:53:25;14.73;;;4.25;;
47599;SDS011;33323;52.124;6.018;2023-03-25T06:55:55;12.18;;;3.95;;
47599;SDS011;33323;52.124;6.018;2023-03-25T06:58:23;13.30;;;3.45;;
47599;SDS011;33323;52.124;6.018;2023-03-25T07:00:54;6.93;;;3.45;;
47599;SDS011;33323;52.124;6.018;2023-03-25T07:03:21;10.27;;;3.55;;
47599;SDS011;33323;52.124;6.018;2023-03-25T07:05:49;10.77;;;3.95;;
47599;SDS011;33323;52.124;6.018;2023-03-25T07:08:17;15.25;;;3.42;;
47599;SDS011;33323;52.124;6.018;2023-03-25T07:10:44;13.77;;;4.07;;
47599;SDS011;33323;52.124;6.018;2023-03-25T07:13:11;24.60;;;5.45;;
47599;SDS011;33323;52.124;6.018;2023-03-25T07:15:39;14.98;;;4.15;;
47599;SDS011;33323;52.124;6.018;2023-03-25T07:18:07;10.30;;;3.65;;
47599;SDS011;33323;52.124;6.018;2023-03-25T07:20:34;10.23;;;3.95;;
47599;SDS011;33323;52.124;6.018;2023-03-25T07:23:02;9.13;;;3.17;;
47599;SDS011;33323;52.124;6.018;2023-03-25T07:25:29;12.32;;;3.90;;
47599;SDS011;33323;52.124;6.018;2023-03-25T07:27:56;7.93;;;2.35;;
47599;SDS011;33323;52.124;6.018;2023-03-25T07:30:24;11.18;;;3.47;;
47599;SDS011;33323;52.124;6.018;2023-03-25T07:32:51;13.57;;;3.30;;
47599;SDS011;33323;52.124;6.018;2023-03-25T07:35:18;13.55;;;3.70;;
47599;SDS011;33323;52.124;6.018;2023-03-25T07:37:46;10.65;;;2.90;;
47599;SDS011;33323;52.124;6.018;2023-03-25T07:40:13;11.07;;;3.17;;
47599;SDS011;33323;52.124;6.018;2023-03-25T07:42:40;10.75;;;3.10;;
47599;SDS011;33323;52.124;6.018;2023-03-25T07:45:20;8.98;;;2.13;;
47599;SDS011;33323;52.124;6.018;2023-03-25T07:47:50;12.77;;;4.43;;
47599;SDS011;33323;52.124;6.018;2023-03-25T07:50:19;8.63;;;2.45;;
47599;SDS011;33323;52.124;6.018;2023-03-25T07:52:51;9.15;;;3.55;;
47599;SDS011;33323;52.124;6.018;2023-03-25T07:55:20;12.70;;;4.40;;
47599;SDS011;33323;52.124;6.018;2023-03-25T07:57:47;9.65;;;2.38;;
47599;SDS011;33323;52.124;6.018;2023-03-25T08:00:14;17.30;;;3.85;;
47599;SDS011;33323;52.124;6.018;2023-03-25T08:02:42;15.68;;;3.05;;
47599;SDS011;33323;52.124;6.018;2023-03-25T08:05:09;8.60;;;2.47;;
47599;SDS011;33323;52.124;6.018;2023-03-25T08:07:37;20.73;;;3.20;;
47599;SDS011;33323;52.124;6.018;2023-03-25T08:10:05;17.27;;;2.67;;
47599;SDS011;33323;52.124;6.018;2023-03-25T08:12:33;10.02;;;1.83;;
47599;SDS011;33323;52.124;6.018;2023-03-25T08:15:02;15.75;;;3.55;;
47599;SDS011;33323;52.124;6.018;2023-03-25T08:17:29;17.88;;;3.53;;
47599;SDS011;33323;52.124;6.018;2023-03-25T08:19:57;12.32;;;2.33;;
47599;SDS011;33323;52.124;6.018;2023-03-25T08:22:26;16.13;;;2.55;;
47599;SDS011;33323;52.124;6.018;2023-03-25T08:24:53;10.70;;;2.95;;
47599;SDS011;33323;52.124;6.018;2023-03-25T08:27:21;14.57;;;2.88;;
47599;SDS011;33323;52.124;6.018;2023-03-25T08:29:48;10.85;;;2.65;;
47599;SDS011;33323;52.124;6.018;2023-03-25T08:32:20;17.13;;;2.38;;
47599;SDS011;33323;52.124;6.018;2023-03-25T08:34:47;20.60;;;3.58;;
47599;SDS011;33323;52.124;6.018;2023-03-25T08:37:14;21.60;;;3.05;;
47599;SDS011;33323;52.124;6.018;2023-03-25T08:39:42;23.10;;;4.03;;
47599;SDS011;33323;52.124;6.018;2023-03-25T08:42:10;16.52;;;2.90;;
47599;SDS011;33323;52.124;6.018;2023-03-25T08:44:38;12.25;;;4.15;;
47599;SDS011;33323;52.124;6.018;2023-03-25T08:47:07;20.52;;;4.25;;
47599;SDS011;33323;52.124;6.018;2023-03-25T08:49:35;16.73;;;3.13;;
47599;SDS011;33323;52.124;6.018;2023-03-25T08:52:05;16.15;;;3.30;;
47599;SDS011;33323;52.124;6.018;2023-03-25T08:54:34;16.48;;;3.13;;
47599;SDS011;33323;52.124;6.018;2023-03-25T08:57:01;17.65;;;4.13;;
47599;SDS011;33323;52.124;6.018;2023-03-25T08:59:29;17.10;;;3.22;;
47599;SDS011;33323;52.124;6.018;2023-03-25T09:01:56;13.00;;;3.47;;
47599;SDS011;33323;52.124;6.018;2023-03-25T09:04:26;22.33;;;5.57;;
47599;SDS011;33323;52.124;6.018;2023-03-25T09:06:53;12.85;;;2.40;;
47599;SDS011;33323;52.124;6.018;2023-03-25T09:09:37;10.65;;;2.95;;
47599;SDS011;33323;52.124;6.018;2023-03-25T09:12:15;31.10;;;6.95;;
47599;SDS011;33323;52.124;6.018;2023-03-25T09:14:43;10.32;;;3.58;;
47599;SDS011;33323;52.124;6.018;2023-03-25T09:17:10;13.65;;;2.78;;
47599;SDS011;33323;52.124;6.018;2023-03-25T09:19:37;10.68;;;2.53;;
47599;SDS011;33323;52.124;6.018;2023-03-25T09:22:05;17.90;;;3.28;;
47599;SDS011;33323;52.124;6.018;2023-03-25T09:24:32;16.08;;;3.67;;
47599;SDS011;33323;52.124;6.018;2023-03-25T09:27:01;11.48;;;3.35;;
47599;SDS011;33323;52.124;6.018;2023-03-25T09:29:29;12.13;;;1.90;;
47599;SDS011;33323;52.124;6.018;2023-03-25T09:31:56;11.38;;;3.53;;
47599;SDS011;33323;52.124;6.018;2023-03-25T09:34:25;15.20;;;3.78;;
47599;SDS011;33323;52.124;6.018;2023-03-25T09:36:54;9.43;;;2.03;;
47599;SDS011;33323;52.124;6.018;2023-03-25T09:39:21;6.63;;;1.70;;
47599;SDS011;33323;52.124;6.018;2023-03-25T09:48:02;10.60;;;1.35;;
47599;SDS011;33323;52.124;6.018;2023-03-25T09:51:11;10.48;;;1.77;;
47599;SDS011;33323;52.124;6.018;2023-03-25T09:54:43;4.80;;;1.60;;
47599;SDS011;33323;52.124;6.018;2023-03-25T09:56:52;8.98;;;2.53;;
47599;SDS011;33323;52.124;6.018;2023-03-25T09:59:24;16.13;;;2.58;;
47599;SDS011;33323;52.124;6.018;2023-03-25T10:02:13;18.98;;;3.03;;
47599;SDS011;33323;52.124;6.018;2023-03-25T10:04:57;11.00;;;1.98;;
47599;SDS011;33323;52.124;6.018;2023-03-25T10:13:49;8.38;;;1.55;;
47599;SDS011;33323;52.124;6.018;2023-03-25T10:20:00;22.77;;;4.18;;
47599;SDS011;33323;52.124;6.018;2023-03-25T10:25:46;9.13;;;1.83;;
47599;SDS011;33323;52.124;6.018;2023-03-25T10:28:23;11.35;;;2.50;;
47599;SDS011;33323;52.124;6.018;2023-03-25T10:30:58;7.30;;;1.90;;
47599;SDS011;33323;52.124;6.018;2023-03-25T10:36:03;19.70;;;2.33;;
47599;SDS011;33323;52.124;6.018;2023-03-25T10:38:33;7.45;;;1.73;;
47599;SDS011;33323;52.124;6.018;2023-03-25T10:41:13;13.85;;;2.47;;
47599;SDS011;33323;52.124;6.018;2023-03-25T10:43:52;11.43;;;3.38;;
47599;SDS011;33323;52.124;6.018;2023-03-25T10:49:16;9.57;;;2.10;;
47599;SDS011;33323;52.124;6.018;2023-03-25T10:51:50;7.63;;;1.52;;
47599;SDS011;33323;52.124;6.018;2023-03-25T10:54:20;19.15;;;4.18;;
47599;SDS011;33323;52.124;6.018;2023-03-25T10:56:53;12.35;;;3.13;;
47599;SDS011;33323;52.124;6.018;2023-03-25T10:59:31;18.42;;;3.08;;
47599;SDS011;33323;52.124;6.018;2023-03-25T11:02:27;12.68;;;2.17;;
47599;SDS011;33323;52.124;6.018;2023-03-25T11:04:57;10.20;;;1.92;;
47599;SDS011;33323;52.124;6.018;2023-03-25T11:07:37;17.80;;;3.47;;
47599;SDS011;33323;52.124;6.018;2023-03-25T11:12:44;23.83;;;4.40;;
47599;SDS011;33323;52.124;6.018;2023-03-25T11:15:14;22.23;;;3.28;;
47599;SDS011;33323;52.124;6.018;2023-03-25T11:17:47;26.33;;;5.72;;
47599;SDS011;33323;52.124;6.018;2023-03-25T11:20:27;21.02;;;3.28;;
47599;SDS011;33323;52.124;6.018;2023-03-25T11:23:04;20.70;;;2.90;;
47599;SDS011;33323;52.124;6.018;2023-03-25T11:25:46;11.82;;;2.40;;
47599;SDS011;33323;52.124;6.018;2023-03-25T11:28:30;21.85;;;3.67;;
47599;SDS011;33323;52.124;6.018;2023-03-25T11:34:01;13.52;;;2.50;;
47599;SDS011;33323;52.124;6.018;2023-03-25T11:42:10;10.45;;;2.65;;
47599;SDS011;33323;52.124;6.018;2023-03-25T11:44:48;11.50;;;1.35;;
47599;SDS011;33323;52.124;6.018;2023-03-25T11:47:21;13.43;;;2.40;;
47599;SDS011;33323;52.124;6.018;2023-03-25T11:50:04;15.57;;;3.35;;
47599;SDS011;33323;52.124;6.018;2023-03-25T11:52:43;15.18;;;2.15;;
47599;SDS011;33323;52.124;6.018;2023-03-25T11:55:16;20.20;;;2.88;;
47599;SDS011;33323;52.124;6.018;2023-03-25T11:57:48;14.77;;;3.38;;
47599;SDS011;33323;52.124;6.018;2023-03-25T12:02:58;17.80;;;4.75;;
47599;SDS011;33323;52.124;6.018;2023-03-25T12:08:41;19.42;;;2.78;;
47599;SDS011;33323;52.124;6.018;2023-03-25T12:14:14;39.30;;;6.35;;
47599;SDS011;33323;52.124;6.018;2023-03-25T12:17:39;22.58;;;3.70;;
47599;SDS011;33323;52.124;6.018;2023-03-25T12:20:54;24.38;;;3.97;;
47599;SDS011;33323;52.124;6.018;2023-03-25T12:26:07;20.15;;;2.25;;
47599;SDS011;33323;52.124;6.018;2023-03-25T12:40:38;12.70;;;2.28;;
47599;SDS011;33323;52.124;6.018;2023-03-25T12:58:12;8.82;;;1.85;;
47599;SDS011;33323;52.124;6.018;2023-03-25T13:06:40;14.02;;;1.80;;
47599;SDS011;33323;52.124;6.018;2023-03-25T13:09:26;11.05;;;2.67;;
47599;SDS011;33323;52.124;6.018;2023-03-25T13:15:04;8.52;;;2.60;;
47599;SDS011;33323;52.124;6.018;2023-03-25T13:18:05;14.63;;;3.17;;
47599;SDS011;33323;52.124;6.018;2023-03-25T13:20:46;11.50;;;1.70;;
47599;SDS011;33323;52.124;6.018;2023-03-25T13:23:21;20.20;;;4.55;;
47599;SDS011;33323;52.124;6.018;2023-03-25T13:25:51;13.90;;;1.75;;
47599;SDS011;33323;52.124;6.018;2023-03-25T13:28:27;9.80;;;1.50;;
47599;SDS011;33323;52.124;6.018;2023-03-25T13:31:04;14.30;;;2.67;;
47599;SDS011;33323;52.124;6.018;2023-03-25T13:33:38;13.70;;;2.28;;
47599;SDS011;33323;52.124;6.018;2023-03-25T13:36:25;22.70;;;3.40;;
47599;SDS011;33323;52.124;6.018;2023-03-25T13:39:23;9.93;;;2.45;;
47599;SDS011;33323;52.124;6.018;2023-03-25T13:42:02;16.38;;;2.85;;
47599;SDS011;33323;52.124;6.018;2023-03-25T13:44:38;12.02;;;2.25;;
47599;SDS011;33323;52.124;6.018;2023-03-25T13:47:18;10.50;;;2.53;;
47599;SDS011;33323;52.124;6.018;2023-03-25T13:49:57;7.80;;;2.80;;
47599;SDS011;33323;52.124;6.018;2023-03-25T13:52:34;10.73;;;1.90;;
47599;SDS011;33323;52.124;6.018;2023-03-25T13:55:09;10.98;;;1.48;;
47599;SDS011;33323;52.124;6.018;2023-03-25T13:58:01;9.43;;;2.70;;
47599;SDS011;33323;52.124;6.018;2023-03-25T14:01:03;10.60;;;1.20;;
47599;SDS011;33323;52.124;6.018;2023-03-25T14:12:28;8.52;;;1.85;;
47599;SDS011;33323;52.124;6.018;2023-03-25T14:15:27;5.72;;;1.42;;
47599;SDS011;33323;52.124;6.018;2023-03-25T14:17:59;15.05;;;2.60;;
47599;SDS011;33323;52.124;6.018;2023-03-25T14:20:35;14.75;;;2.47;;
47599;SDS011;33323;52.124;6.018;2023-03-25T14:23:17;8.25;;;1.40;;
47599;SDS011;33323;52.124;6.018;2023-03-25T14:25:50;10.38;;;1.55;;
47599;SDS011;33323;52.124;6.018;2023-03-25T14:28:36;4.57;;;1.60;;
47599;SDS011;33323;52.124;6.018;2023-03-25T14:31:08;8.80;;;1.20;;
47599;SDS011;33323;52.124;6.018;2023-03-25T14:34:10;7.30;;;1.70;;
47599;SDS011;33323;52.124;6.018;2023-03-25T14:39:08;8.20;;;1.17;;
47599;SDS011;33323;52.124;6.018;2023-03-25T14:42:01;7.65;;;1.20;;
47599;SDS011;33323;52.124;6.018;2023-03-25T14:44:42;7.68;;;1.00;;
47599;SDS011;33323;52.124;6.018;2023-03-25T14:49:46;5.20;;;0.88;;
47599;SDS011;33323;52.124;6.018;2023-03-25T14:52:47;1.90;;;0.63;;
47599;SDS011;33323;52.124;6.018;2023-03-25T14:55:28;4.18;;;0.77;;
47599;SDS011;33323;52.124;6.018;2023-03-25T15:00:40;3.95;;;0.85;;
47599;SDS011;33323;52.124;6.018;2023-03-25T15:03:15;3.90;;;0.50;;
47599;SDS011;33323;52.124;6.018;2023-03-25T15:05:44;4.15;;;1.35;;
47599;SDS011;33323;52.124;6.018;2023-03-25T15:08:25;10.95;;;1.80;;
47599;SDS011;33323;52.124;6.018;2023-03-25T15:11:07;5.88;;;2.00;;
47599;SDS011;33323;52.124;6.018;2023-03-25T15:13:41;4.50;;;0.85;;
47599;SDS011;33323;52.124;6.018;2023-03-25T15:16:26;6.80;;;1.67;;
47599;SDS011;33323;52.124;6.018;2023-03-25T15:19:16;6.15;;;1.25;;
47599;SDS011;33323;52.124;6.018;2023-03-25T15:45:12;6.65;;;1.30;;
47599;SDS011;33323;52.124;6.018;2023-03-25T15:48:31;8.52;;;1.15;;
47599;SDS011;33323;52.124;6.018;2023-03-25T15:56:45;3.38;;;0.60;;
47599;SDS011;33323;52.124;6.018;2023-03-25T16:01:55;4.30;;;0.70;;
47599;SDS011;33323;52.124;6.018;2023-03-25T16:04:39;1.88;;;1.05;;
47599;SDS011;33323;52.124;6.018;2023-03-25T16:07:13;2.15;;;0.47;;
47599;SDS011;33323;52.124;6.018;2023-03-25T16:09:45;1.70;;;0.88;;
47599;SDS011;33323;52.124;6.018;2023-03-25T16:12:20;3.20;;;0.80;;
47599;SDS011;33323;52.124;6.018;2023-03-25T16:14:50;2.95;;;0.63;;
47599;SDS011;33323;52.124;6.018;2023-03-25T16:17:19;3.30;;;1.15;;
47599;SDS011;33323;52.124;6.018;2023-03-25T16:19:51;3.38;;;0.40;;
47599;SDS011;33323;52.124;6.018;2023-03-25T16:22:24;7.15;;;0.75;;
47599;SDS011;33323;52.124;6.018;2023-03-25T16:25:00;7.18;;;0.90;;
47599;SDS011;33323;52.124;6.018;2023-03-25T16:27:40;3.30;;;0.70;;
47599;SDS011;33323;52.124;6.018;2023-03-25T16:30:21;4.55;;;0.80;;
47599;SDS011;33323;52.124;6.018;2023-03-25T16:35:39;3.00;;;0.93;;
47599;SDS011;33323;52.124;6.018;2023-03-25T16:38:16;6.22;;;0.70;;
47599;SDS011;33323;52.124;6.018;2023-03-25T16:40:47;4.50;;;1.00;;
47599;SDS011;33323;52.124;6.018;2023-03-25T16:43:19;5.43;;;0.70;;
47599;SDS011;33323;52.124;6.018;2023-03-25T16:45:49;3.67;;;0.90;;
47599;SDS011;33323;52.124;6.018;2023-03-25T16:51:15;5.57;;;1.05;;
47599;SDS011;33323;52.124;6.018;2023-03-25T16:53:48;5.90;;;1.77;;
47599;SDS011;33323;52.124;6.018;2023-03-25T16:56:20;7.07;;;0.55;;
47599;SDS011;33323;52.124;6.018;2023-03-25T17:01:37;3.80;;;0.63;;
47599;SDS011;33323;52.124;6.018;2023-03-25T17:04:14;2.28;;;0.80;;
47599;SDS011;33323;52.124;6.018;2023-03-25T17:06:43;5.78;;;0.98;;
47599;SDS011;33323;52.124;6.018;2023-03-25T17:09:19;3.08;;;0.50;;
47599;SDS011;33323;52.124;6.018;2023-03-25T17:11:55;3.28;;;0.60;;
47599;SDS011;33323;52.124;6.018;2023-03-25T17:14:25;1.60;;;0.60;;
47599;SDS011;33323;52.124;6.018;2023-03-25T17:16:58;2.05;;;0.50;;
47599;SDS011;33323;52.124;6.018;2023-03-25T17:19:34;1.55;;;0.68;;
47599;SDS011;33323;52.124;6.018;2023-03-25T17:25:10;3.00;;;1.00;;
47599;SDS011;33323;52.124;6.018;2023-03-25T17:27:55;3.15;;;0.70;;
47599;SDS011;33323;52.124;6.018;2023-03-25T17:30:38;4.72;;;1.08;;
47599;SDS011;33323;52.124;6.018;2023-03-25T17:33:10;2.88;;;0.45;;
47599;SDS011;33323;52.124;6.018;2023-03-25T17:36:08;5.75;;;0.80;;
47599;SDS011;33323;52.124;6.018;2023-03-25T17:38:41;5.80;;;1.00;;
47599;SDS011;33323;52.124;6.018;2023-03-25T17:41:15;4.25;;;0.77;;
47599;SDS011;33323;52.124;6.018;2023-03-25T17:43:48;6.50;;;1.05;;
47599;SDS011;33323;52.124;6.018;2023-03-25T17:46:23;8.68;;;1.38;;
47599;SDS011;33323;52.124;6.018;2023-03-25T17:48:54;2.60;;;0.90;;
47599;SDS011;33323;52.124;6.018;2023-03-25T17:51:23;6.20;;;0.80;;
47599;SDS011;33323;52.124;6.018;2023-03-25T17:53:53;4.95;;;0.98;;
47599;SDS011;33323;52.124;6.018;2023-03-25T17:56:25;12.55;;;2.67;;
47599;SDS011;33323;52.124;6.018;2023-03-25T17:58:59;4.00;;;1.38;;
47599;SDS011;33323;52.124;6.018;2023-03-25T18:01:29;9.63;;;2.67;;
47599;SDS011;33323;52.124;6.018;2023-03-25T18:03:58;2.42;;;1.15;;
47599;SDS011;33323;52.124;6.018;2023-03-25T18:06:25;5.20;;;1.20;;
47599;SDS011;33323;52.124;6.018;2023-03-25T18:08:52;7.28;;;2.25;;
47599;SDS011;33323;52.124;6.018;2023-03-25T18:11:23;7.03;;;1.10;;
47599;SDS011;33323;52.124;6.018;2023-03-25T18:13:50;6.38;;;1.60;;
47599;SDS011;33323;52.124;6.018;2023-03-25T18:16:18;6.80;;;2.88;;
47599;SDS011;33323;52.124;6.018;2023-03-25T18:18:47;6.65;;;1.50;;
47599;SDS011;33323;52.124;6.018;2023-03-25T18:21:15;9.70;;;1.90;;